createdAt,value
2023-08-17T00:00:31.987Z,1.08
2023-08-17T00:02:58.469Z,1.10
2023-08-17T00:05:24.932Z,1.10
2023-08-17T00:07:51.378Z,0.90
2023-08-17T00:10:17.862Z,1.10
2023-08-17T00:12:45.218Z,1.10
2023-08-17T00:15:11.771Z,1.17
2023-08-17T00:17:38.408Z,1.10
2023-08-17T00:20:05.406Z,1.00
2023-08-17T00:22:31.941Z,1.10
2023-08-17T00:24:58.403Z,1.35
2023-08-17T00:27:25.185Z,1.08
2023-08-17T00:29:51.847Z,1.15
2023-08-17T00:32:18.838Z,1.40
2023-08-17T00:34:47.272Z,1.02
2023-08-17T00:37:13.739Z,1.05
2023-08-17T00:39:40.205Z,1.10
2023-08-17T00:42:06.730Z,0.90
2023-08-17T00:44:33.166Z,1.10
2023-08-17T00:47:00.381Z,0.93
2023-08-17T00:49:26.905Z,0.90
2023-08-17T00:51:53.451Z,0.90
2023-08-17T00:54:25.101Z,0.88
2023-08-17T00:56:52.464Z,0.90
2023-08-17T00:59:19.041Z,1.20
2023-08-17T01:01:47.037Z,1.10
2023-08-17T01:04:13.614Z,1.10
2023-08-17T01:06:41.409Z,0.85
2023-08-17T01:09:08.802Z,1.00
2023-08-17T01:11:56.879Z,1.00
2023-08-17T01:14:38.354Z,0.90
2023-08-17T01:17:13.702Z,1.15
2023-08-17T01:19:40.717Z,1.00
2023-08-17T01:22:09.719Z,0.85
2023-08-17T01:24:36.205Z,1.10
2023-08-17T01:27:02.635Z,0.90
2023-08-17T01:29:29.518Z,0.82
2023-08-17T01:32:04.892Z,0.88
2023-08-17T01:34:36.641Z,0.98
2023-08-17T01:37:08.394Z,0.90
2023-08-17T01:39:44.100Z,0.90
2023-08-17T01:42:13.365Z,0.90
2023-08-17T01:44:40.942Z,0.75
2023-08-17T01:47:07.396Z,0.90
2023-08-17T01:49:33.885Z,0.80
2023-08-17T01:52:00.367Z,0.77
2023-08-17T01:54:26.873Z,0.80
2023-08-17T01:56:53.328Z,0.82
2023-08-17T01:59:19.799Z,0.90
2023-08-17T02:01:46.303Z,0.70
2023-08-17T02:04:12.725Z,0.82
2023-08-17T02:06:39.168Z,0.73
2023-08-17T02:09:05.648Z,0.88
2023-08-17T02:11:32.208Z,0.70
2023-08-17T02:13:58.646Z,0.70
2023-08-17T02:16:25.099Z,0.57
2023-08-17T02:18:51.575Z,0.60
2023-08-17T02:21:18.011Z,0.70
2023-08-17T02:23:44.431Z,0.80
2023-08-17T02:26:10.897Z,0.63
2023-08-17T02:28:37.386Z,0.80
2023-08-17T02:31:03.966Z,0.60
2023-08-17T02:33:30.465Z,0.60
2023-08-17T02:35:56.948Z,0.70
2023-08-17T02:38:23.409Z,0.70
2023-08-17T02:40:50.485Z,0.70
2023-08-17T02:43:17.175Z,0.90
2023-08-17T02:45:43.663Z,0.70
2023-08-17T02:48:10.171Z,0.82
2023-08-17T02:50:36.632Z,0.75
2023-08-17T02:53:03.259Z,0.77
2023-08-17T02:55:29.693Z,0.80
2023-08-17T02:57:56.201Z,0.70
2023-08-17T03:00:22.833Z,0.60
2023-08-17T03:02:49.357Z,0.80
2023-08-17T03:05:15.785Z,0.60
2023-08-17T03:07:42.223Z,0.70
2023-08-17T03:10:08.832Z,0.50
2023-08-17T03:12:35.341Z,0.60
2023-08-17T03:15:01.961Z,0.70
2023-08-17T03:17:28.816Z,0.60
2023-08-17T03:19:55.485Z,0.60
2023-08-17T03:22:21.955Z,0.60
2023-08-17T03:24:48.402Z,0.50
2023-08-17T03:27:14.818Z,0.60
2023-08-17T03:29:41.235Z,0.60
2023-08-17T03:32:07.748Z,0.57
2023-08-17T03:34:34.206Z,0.60
2023-08-17T03:37:00.651Z,0.50
2023-08-17T03:39:27.090Z,0.55
2023-08-17T03:41:53.543Z,0.70
2023-08-17T03:44:20.011Z,0.65
2023-08-17T03:46:46.421Z,0.70
2023-08-17T03:49:12.890Z,0.77
2023-08-17T03:51:39.317Z,0.60
2023-08-17T03:54:05.785Z,0.70
2023-08-17T03:56:32.419Z,0.50
2023-08-17T03:58:59.306Z,0.68
2023-08-17T04:01:25.830Z,0.70
2023-08-17T04:03:52.376Z,0.55
2023-08-17T04:06:18.840Z,0.60
2023-08-17T04:08:45.347Z,0.60
2023-08-17T04:11:11.859Z,0.50
2023-08-17T04:13:38.421Z,0.57
2023-08-17T04:16:05.085Z,0.60
2023-08-17T04:18:31.582Z,0.60
2023-08-17T04:20:58.068Z,0.85
2023-08-17T04:23:24.536Z,0.60
2023-08-17T04:25:51.052Z,0.60
2023-08-17T04:28:17.518Z,0.70
2023-08-17T04:30:44.170Z,0.57
2023-08-17T04:33:10.717Z,0.60
2023-08-17T04:35:37.288Z,0.50
2023-08-17T04:38:03.966Z,0.57
2023-08-17T04:40:30.515Z,0.52
2023-08-17T04:42:57.175Z,0.70
2023-08-17T04:45:23.736Z,0.52
2023-08-17T04:47:50.245Z,0.40
2023-08-17T04:50:17.052Z,0.60
2023-08-17T04:52:44.940Z,0.57
2023-08-17T04:55:12.192Z,0.60
2023-08-17T04:57:38.702Z,0.70
2023-08-17T05:00:06.734Z,0.47
2023-08-17T05:02:33.256Z,0.77
2023-08-17T05:04:59.790Z,0.60
2023-08-17T05:07:26.484Z,0.50
2023-08-17T05:09:53.108Z,0.57
2023-08-17T05:12:19.550Z,0.63
2023-08-17T05:14:45.991Z,0.65
2023-08-17T05:17:12.511Z,0.65
2023-08-17T05:19:38.941Z,0.52
2023-08-17T05:22:05.466Z,0.60
2023-08-17T05:24:31.980Z,0.70
2023-08-17T05:26:58.470Z,0.70
2023-08-17T05:29:24.936Z,0.60
2023-08-17T05:31:51.392Z,0.50
2023-08-17T05:34:17.792Z,0.50
2023-08-17T05:36:44.227Z,0.50
2023-08-17T05:39:10.689Z,0.50
2023-08-17T05:41:37.203Z,0.52
2023-08-17T05:44:03.930Z,0.70
2023-08-17T05:46:30.375Z,0.52
2023-08-17T05:48:56.826Z,0.57
2023-08-17T05:51:23.352Z,0.50
2023-08-17T05:53:49.823Z,0.60
2023-08-17T05:56:16.342Z,0.60
2023-08-17T05:58:43.522Z,0.50
2023-08-17T06:01:12.362Z,0.50
2023-08-17T06:03:39.472Z,0.40
2023-08-17T06:06:06.064Z,0.60
2023-08-17T06:08:32.597Z,0.70
2023-08-17T06:10:59.412Z,0.60
2023-08-17T06:13:25.853Z,0.70
2023-08-17T06:15:52.357Z,0.50
2023-08-17T06:18:18.902Z,0.70
2023-08-17T06:20:46.040Z,0.52
2023-08-17T06:23:12.457Z,0.60
2023-08-17T06:25:38.893Z,0.50
2023-08-17T06:28:07.331Z,0.57
2023-08-17T06:30:33.827Z,0.60
2023-08-17T06:33:00.328Z,0.50
2023-08-17T06:35:26.916Z,0.30
2023-08-17T06:37:53.396Z,0.50
2023-08-17T06:40:19.961Z,0.50
2023-08-17T06:42:46.396Z,0.40
2023-08-17T06:45:12.827Z,0.52
2023-08-17T06:47:39.281Z,0.45
2023-08-17T06:50:06.005Z,0.60
2023-08-17T06:52:32.447Z,0.50
2023-08-17T06:54:58.892Z,0.50
2023-08-17T06:57:25.655Z,0.57
2023-08-17T06:59:52.235Z,0.60
2023-08-17T07:02:18.863Z,0.57
2023-08-17T07:04:45.308Z,0.55
2023-08-17T07:07:11.787Z,0.60
2023-08-17T07:09:38.219Z,0.52
2023-08-17T07:12:04.905Z,0.70
2023-08-17T07:14:31.412Z,0.52
2023-08-17T07:16:57.816Z,0.60
2023-08-17T07:19:34.292Z,0.55
2023-08-17T07:22:10.787Z,0.50
2023-08-17T07:24:37.397Z,0.60
2023-08-17T07:27:03.971Z,0.70
2023-08-17T07:29:30.427Z,0.60
2023-08-17T07:31:56.940Z,0.90
2023-08-17T07:34:23.450Z,0.98
2023-08-17T07:36:49.919Z,0.85
2023-08-17T07:39:16.341Z,1.05
2023-08-17T07:41:42.767Z,1.08
2023-08-17T07:44:09.253Z,1.00
2023-08-17T07:46:35.750Z,1.20
2023-08-17T07:49:02.196Z,1.30
2023-08-17T07:51:28.679Z,1.20
2023-08-17T07:53:55.160Z,1.20
2023-08-17T07:56:21.600Z,1.33
2023-08-17T07:58:48.036Z,1.42
2023-08-17T08:01:14.501Z,3.10
2023-08-17T08:03:40.955Z,7.40
2023-08-17T08:06:07.449Z,7.20
2023-08-17T08:08:33.945Z,6.53
2023-08-17T08:11:00.508Z,4.85
2023-08-17T08:13:27.043Z,4.65
2023-08-17T08:15:53.527Z,4.00
2023-08-17T08:18:20.001Z,3.20
2023-08-17T08:20:46.502Z,3.42
2023-08-17T08:23:13.066Z,2.47
2023-08-17T08:25:39.517Z,2.42
2023-08-17T08:28:06.207Z,1.80
2023-08-17T08:30:32.682Z,2.17
2023-08-17T08:32:59.302Z,1.90
2023-08-17T08:35:25.774Z,2.35
2023-08-17T08:37:52.612Z,1.70
2023-08-17T08:40:19.148Z,2.00
2023-08-17T08:42:45.683Z,1.38
2023-08-17T08:45:12.213Z,1.60
2023-08-17T08:47:39.190Z,1.50
2023-08-17T08:50:06.602Z,1.50
2023-08-17T08:52:39.978Z,1.30
2023-08-17T08:55:18.364Z,1.20
2023-08-17T08:57:51.606Z,1.50
2023-08-17T09:00:19.324Z,1.30
2023-08-17T09:02:47.088Z,1.25
2023-08-17T09:05:14.661Z,1.30
2023-08-17T09:07:43.409Z,1.60
2023-08-17T09:10:13.067Z,1.88
2023-08-17T09:12:41.585Z,2.28
2023-08-17T09:15:09.179Z,1.88
2023-08-17T09:17:35.747Z,2.33
2023-08-17T09:20:02.497Z,2.53
2023-08-17T09:22:44.351Z,3.20
2023-08-17T09:25:12.250Z,2.58
2023-08-17T09:27:39.515Z,2.15
2023-08-17T09:30:07.965Z,2.38
2023-08-17T09:32:34.976Z,2.50
2023-08-17T09:35:02.626Z,2.42
2023-08-17T09:37:29.068Z,2.30
2023-08-17T09:39:56.631Z,2.30
2023-08-17T09:42:23.591Z,2.60
2023-08-17T09:44:51.026Z,2.90
2023-08-17T09:47:18.119Z,2.55
2023-08-17T09:49:58.298Z,2.50
2023-08-17T09:52:25.963Z,2.33
2023-08-17T09:54:53.620Z,2.60
2023-08-17T09:57:23.206Z,2.63
2023-08-17T09:59:49.987Z,2.35
2023-08-17T10:02:19.514Z,2.30
2023-08-17T10:04:52.531Z,2.13
2023-08-17T10:07:25.143Z,2.38
2023-08-17T10:09:59.356Z,2.40
2023-08-17T10:12:32.255Z,2.53
2023-08-17T10:15:08.024Z,2.53
2023-08-17T10:17:45.661Z,2.42
2023-08-17T10:20:12.289Z,2.20
2023-08-17T10:22:55.442Z,2.28
2023-08-17T10:25:24.134Z,2.33
2023-08-17T10:27:51.898Z,2.75
2023-08-17T10:30:18.403Z,2.85
2023-08-17T10:32:45.232Z,2.95
2023-08-17T10:35:12.305Z,3.15
2023-08-17T10:37:39.864Z,3.55
2023-08-17T10:40:06.937Z,3.53
2023-08-17T10:42:35.127Z,3.72
2023-08-17T10:45:02.147Z,4.20
2023-08-17T10:50:04.228Z,3.95
2023-08-17T10:52:36.009Z,3.92
2023-08-17T10:55:04.998Z,3.72
2023-08-17T10:57:39.475Z,4.55
2023-08-17T11:00:05.847Z,4.47
2023-08-17T11:02:36.589Z,4.13
2023-08-17T11:05:03.705Z,4.10
2023-08-17T11:07:43.279Z,4.53
2023-08-17T11:10:29.465Z,4.43
2023-08-17T11:12:59.846Z,4.60
2023-08-17T11:15:27.319Z,4.22
2023-08-17T11:17:53.879Z,4.90
2023-08-17T11:20:20.357Z,4.40
2023-08-17T11:22:47.699Z,4.28
2023-08-17T11:25:14.456Z,4.40
2023-08-17T11:27:40.928Z,4.07
2023-08-17T11:30:08.066Z,4.57
2023-08-17T11:32:35.586Z,4.50
2023-08-17T11:35:02.873Z,4.40
2023-08-17T11:37:29.307Z,4.30
2023-08-17T11:39:55.762Z,4.97
2023-08-17T11:42:23.292Z,4.72
2023-08-17T11:44:49.980Z,4.68
2023-08-17T11:47:16.463Z,4.57
2023-08-17T11:49:43.068Z,4.40
2023-08-17T11:52:12.347Z,4.90
2023-08-17T11:54:42.180Z,4.20
2023-08-17T11:57:08.932Z,4.80
2023-08-17T11:59:35.365Z,4.80
2023-08-17T12:02:02.027Z,4.80
2023-08-17T12:04:28.495Z,4.88
2023-08-17T12:06:55.284Z,5.00
2023-08-17T12:09:22.796Z,4.32
2023-08-17T12:11:49.243Z,5.07
2023-08-17T12:14:15.693Z,4.82
2023-08-17T12:16:49.471Z,5.00
2023-08-17T12:19:16.034Z,4.78
2023-08-17T12:21:43.500Z,4.93
2023-08-17T12:24:10.897Z,5.00
2023-08-17T12:26:37.346Z,4.70
2023-08-17T12:29:06.249Z,5.28
2023-08-17T12:31:33.049Z,4.82
2023-08-17T12:33:59.568Z,5.07
2023-08-17T12:36:26.056Z,5.00
2023-08-17T12:38:52.582Z,4.97
2023-08-17T12:41:19.145Z,4.57
2023-08-17T12:43:45.793Z,4.75
2023-08-17T12:46:12.330Z,4.75
2023-08-17T12:48:39.720Z,4.38
2023-08-17T12:51:06.265Z,4.60
2023-08-17T12:53:33.022Z,4.55
2023-08-17T12:55:59.734Z,4.47
2023-08-17T12:58:26.251Z,4.65
2023-08-17T13:00:52.730Z,4.50
2023-08-17T13:03:19.313Z,4.50
2023-08-17T13:05:45.909Z,5.07
2023-08-17T13:08:12.626Z,4.88
2023-08-17T13:10:39.164Z,4.68
2023-08-17T13:13:05.587Z,4.40
2023-08-17T13:15:33.760Z,4.57
2023-08-17T13:18:00.745Z,4.72
2023-08-17T13:20:27.237Z,4.97
2023-08-17T13:22:53.644Z,5.20
2023-08-17T13:25:20.130Z,6.13
2023-08-17T13:27:46.630Z,6.63
2023-08-17T13:30:13.289Z,7.68
2023-08-17T13:32:39.820Z,8.20
2023-08-17T13:35:06.755Z,7.22
2023-08-17T13:37:33.187Z,8.45
2023-08-17T13:39:59.700Z,8.20
2023-08-17T13:42:26.535Z,7.93
2023-08-17T13:44:53.226Z,9.43
2023-08-17T13:47:19.655Z,9.32
2023-08-17T13:49:46.124Z,9.32
2023-08-17T13:52:12.709Z,8.75
2023-08-17T13:54:39.200Z,9.75
2023-08-17T13:57:05.764Z,8.93
2023-08-17T13:59:32.336Z,8.75
2023-08-17T14:01:58.897Z,7.90
2023-08-17T14:04:25.386Z,7.40
2023-08-17T14:06:52.050Z,6.90
2023-08-17T14:09:18.572Z,6.93
2023-08-17T14:11:45.036Z,6.93
2023-08-17T14:14:11.541Z,6.88
2023-08-17T14:16:38.092Z,7.43
2023-08-17T14:19:04.644Z,6.90
2023-08-17T14:21:31.122Z,7.53
2023-08-17T14:23:57.621Z,7.30
2023-08-17T14:26:24.062Z,7.20
2023-08-17T14:28:50.556Z,6.70
2023-08-17T14:31:17.164Z,6.97
2023-08-17T14:33:44.433Z,7.03
2023-08-17T14:36:11.051Z,7.28
2023-08-17T14:38:37.521Z,7.40
2023-08-17T14:41:03.983Z,7.30
2023-08-17T14:43:30.445Z,7.72
2023-08-17T14:45:57.048Z,7.22
2023-08-17T14:48:23.672Z,6.97
2023-08-17T14:50:50.231Z,6.65
2023-08-17T14:53:16.761Z,6.80
2023-08-17T14:55:43.328Z,6.20
2023-08-17T14:58:09.819Z,6.00
2023-08-17T15:00:36.336Z,5.78
2023-08-17T15:03:02.891Z,5.57
2023-08-17T15:05:29.742Z,5.65
2023-08-17T15:07:56.397Z,5.72
2023-08-17T15:10:23.139Z,4.93
2023-08-17T15:12:49.752Z,5.07
2023-08-17T15:15:20.472Z,4.35
2023-08-17T15:17:47.609Z,4.70
2023-08-17T15:20:14.194Z,4.90
2023-08-17T15:22:40.675Z,4.75
2023-08-17T15:25:07.489Z,5.05
2023-08-17T15:27:33.984Z,4.97
2023-08-17T15:30:00.522Z,4.93
2023-08-17T15:32:27.066Z,4.65
2023-08-17T15:34:54.928Z,4.55
2023-08-17T15:37:23.376Z,4.30
2023-08-17T15:39:49.805Z,4.22
2023-08-17T15:42:16.409Z,4.38
2023-08-17T15:44:42.977Z,4.18
2023-08-17T15:47:09.430Z,3.90
2023-08-17T15:49:35.853Z,4.25
2023-08-17T15:52:05.541Z,4.22
2023-08-17T15:54:36.372Z,4.80
2023-08-17T15:57:05.203Z,4.68
2023-08-17T15:59:31.933Z,5.03
2023-08-17T16:01:58.430Z,5.05
2023-08-17T16:04:24.891Z,5.30
2023-08-17T16:06:51.525Z,4.72
2023-08-17T16:09:18.015Z,4.68
2023-08-17T16:11:44.517Z,4.90
2023-08-17T16:14:11.041Z,4.40
2023-08-17T16:16:37.571Z,4.68
2023-08-17T16:19:05.075Z,5.93
2023-08-17T16:21:32.003Z,4.88
2023-08-17T16:23:58.458Z,5.22
2023-08-17T16:26:25.000Z,5.30
2023-08-17T16:28:51.735Z,4.32
2023-08-17T16:31:18.449Z,4.53
2023-08-17T16:33:46.359Z,4.30
2023-08-17T16:36:13.608Z,4.07
2023-08-17T16:38:40.388Z,4.10
2023-08-17T16:41:06.846Z,4.10
2023-08-17T16:43:33.306Z,4.47
2023-08-17T16:45:59.941Z,4.40
2023-08-17T16:48:27.034Z,4.50
2023-08-17T16:50:53.886Z,4.45
2023-08-17T16:53:20.350Z,4.47
2023-08-17T16:55:54.096Z,4.50
2023-08-17T16:58:21.761Z,4.20
2023-08-17T17:00:48.275Z,3.95
2023-08-17T17:03:14.727Z,3.53
2023-08-17T17:05:41.175Z,3.70
2023-08-17T17:08:07.600Z,3.35
2023-08-17T17:10:34.052Z,3.13
2023-08-17T17:13:00.637Z,3.10
2023-08-17T17:15:27.198Z,2.78
2023-08-17T17:17:53.715Z,2.85
2023-08-17T17:20:20.252Z,2.75
2023-08-17T17:22:46.676Z,2.70
2023-08-17T17:25:13.174Z,2.60
2023-08-17T17:27:39.656Z,2.63
2023-08-17T17:30:06.828Z,2.53
2023-08-17T17:32:33.357Z,2.63
2023-08-17T17:34:59.825Z,2.95
2023-08-17T17:37:26.550Z,2.88
2023-08-17T17:39:53.237Z,3.15
2023-08-17T17:42:19.686Z,3.55
2023-08-17T17:44:46.152Z,3.25
2023-08-17T17:47:12.561Z,2.90
2023-08-17T17:49:39.077Z,3.05
2023-08-17T17:52:05.604Z,3.20
2023-08-17T17:54:32.160Z,2.95
2023-08-17T17:56:59.354Z,3.00
2023-08-17T17:59:25.912Z,3.25
2023-08-17T18:01:52.428Z,3.08
2023-08-17T18:04:18.884Z,2.85
2023-08-17T18:06:45.322Z,2.90
2023-08-17T18:09:11.786Z,3.28
2023-08-17T18:11:38.268Z,3.78
2023-08-17T18:14:07.397Z,3.40
2023-08-17T18:16:34.033Z,3.13
2023-08-17T18:19:00.558Z,3.33
2023-08-17T18:21:27.041Z,2.75
2023-08-17T18:23:53.514Z,3.05
2023-08-17T18:26:19.948Z,3.20
2023-08-17T18:28:46.442Z,3.22
2023-08-17T18:31:12.915Z,4.03
2023-08-17T18:33:39.407Z,3.50
2023-08-17T18:36:06.068Z,3.20
2023-08-17T18:38:32.596Z,3.03
2023-08-17T18:41:07.589Z,2.88
2023-08-17T18:43:34.237Z,2.90
2023-08-17T18:46:00.728Z,2.60
2023-08-17T18:48:27.203Z,2.20
2023-08-17T18:50:53.692Z,2.67
2023-08-17T18:53:20.101Z,2.83
2023-08-17T18:55:46.598Z,2.47
2023-08-17T18:58:13.024Z,2.85
2023-08-17T19:00:39.609Z,2.60
2023-08-17T19:03:06.211Z,3.60
2023-08-17T19:05:32.823Z,3.35
2023-08-17T19:07:59.287Z,6.93
2023-08-17T19:10:26.193Z,7.95
2023-08-17T19:12:53.025Z,9.95
2023-08-17T19:15:19.523Z,12.13
2023-08-17T19:17:46.043Z,13.55
2023-08-17T19:20:12.612Z,14.00
2023-08-17T19:22:39.076Z,15.27
2023-08-17T19:25:05.969Z,14.90
2023-08-17T19:27:32.450Z,15.70
2023-08-17T19:29:58.888Z,13.90
2023-08-17T19:32:25.307Z,15.98
2023-08-17T19:34:51.768Z,14.45
2023-08-17T19:37:18.278Z,12.70
2023-08-17T19:39:44.791Z,14.10
2023-08-17T19:42:11.307Z,12.15
2023-08-17T19:44:37.747Z,12.02
2023-08-17T19:47:04.348Z,11.40
2023-08-17T19:49:30.874Z,10.90
2023-08-17T19:51:57.354Z,10.43
2023-08-17T19:54:23.850Z,9.95
2023-08-17T19:56:50.368Z,9.70
2023-08-17T19:59:16.910Z,8.73
2023-08-17T20:01:43.478Z,8.60
2023-08-17T20:04:10.023Z,8.07
2023-08-17T20:06:36.480Z,8.20
2023-08-17T20:09:03.099Z,7.72
2023-08-17T20:11:29.605Z,7.05
2023-08-17T20:13:56.041Z,7.10
2023-08-17T20:16:22.513Z,7.20
2023-08-17T20:18:49.025Z,6.38
2023-08-17T20:21:15.904Z,5.82
2023-08-17T20:23:42.358Z,5.57
2023-08-17T20:26:08.821Z,5.25
2023-08-17T20:28:35.283Z,5.55
2023-08-17T20:31:01.813Z,5.13
2023-08-17T20:33:28.382Z,4.72
2023-08-17T20:35:55.673Z,5.03
2023-08-17T20:38:23.227Z,4.70
2023-08-17T20:40:51.306Z,4.80
2023-08-17T20:43:18.032Z,4.88
2023-08-17T20:45:44.625Z,4.75
2023-08-17T20:48:11.643Z,4.68
2023-08-17T20:50:43.294Z,4.55
2023-08-17T20:53:09.798Z,4.25
2023-08-17T20:55:39.634Z,4.55
2023-08-17T20:58:06.974Z,4.40
2023-08-17T21:00:34.412Z,4.60
2023-08-17T21:03:01.118Z,4.50
2023-08-17T21:05:28.552Z,4.03
2023-08-17T21:07:56.057Z,4.50
2023-08-17T21:10:23.925Z,4.18
2023-08-17T21:12:50.493Z,4.30
2023-08-17T21:15:17.127Z,4.40
2023-08-17T21:17:43.635Z,3.92
2023-08-17T21:20:10.402Z,4.10
2023-08-17T21:22:44.486Z,4.40
2023-08-17T21:25:11.124Z,4.18
2023-08-17T21:27:37.715Z,4.10
2023-08-17T21:30:04.495Z,4.43
2023-08-17T21:32:30.962Z,4.10
2023-08-17T21:34:57.470Z,4.22
2023-08-17T21:37:26.471Z,3.92
2023-08-17T21:39:54.106Z,4.18
2023-08-17T21:42:21.064Z,4.03
2023-08-17T21:44:47.933Z,3.58
2023-08-17T21:47:14.869Z,3.60
2023-08-17T21:49:41.432Z,3.78
2023-08-17T21:52:07.874Z,4.03
2023-08-17T21:54:34.417Z,3.83
2023-08-17T21:57:00.890Z,3.80
2023-08-17T21:59:27.478Z,3.85
2023-08-17T22:01:53.982Z,3.78
2023-08-17T22:04:20.508Z,3.70
2023-08-17T22:06:47.009Z,3.65
2023-08-17T22:09:13.461Z,3.85
2023-08-17T22:11:39.970Z,3.90
2023-08-17T22:14:06.393Z,3.88
2023-08-17T22:16:32.883Z,3.85
2023-08-17T22:18:59.388Z,4.30
2023-08-17T22:21:25.868Z,3.72
2023-08-17T22:23:52.320Z,3.53
2023-08-17T22:26:18.762Z,4.00
2023-08-17T22:28:45.215Z,3.90
2023-08-17T22:31:11.752Z,3.50
2023-08-17T22:33:38.238Z,3.33
2023-08-17T22:36:04.808Z,3.35
2023-08-17T22:38:31.293Z,3.88
2023-08-17T22:40:57.724Z,3.80
2023-08-17T22:43:24.235Z,3.80
2023-08-17T22:45:50.805Z,3.55
2023-08-17T22:48:17.788Z,3.40
2023-08-17T22:50:44.271Z,3.58
2023-08-17T22:53:10.699Z,3.70
2023-08-17T22:55:37.180Z,3.75
2023-08-17T22:58:03.727Z,3.85
2023-08-17T23:00:30.159Z,3.92
2023-08-17T23:02:56.722Z,3.30
2023-08-17T23:05:23.168Z,3.80
2023-08-17T23:07:49.675Z,3.63
2023-08-17T23:10:16.144Z,3.35
2023-08-17T23:12:42.655Z,3.60
2023-08-17T23:15:09.500Z,3.78
2023-08-17T23:17:36.022Z,3.35
2023-08-17T23:20:02.597Z,3.30
2023-08-17T23:22:29.051Z,3.38
2023-08-17T23:24:55.612Z,3.42
2023-08-17T23:27:22.046Z,3.50
2023-08-17T23:29:48.599Z,3.17
2023-08-17T23:32:26.955Z,3.20
2023-08-17T23:34:55.066Z,3.58
2023-08-17T23:37:21.658Z,3.33
2023-08-17T23:39:48.135Z,3.40
2023-08-17T23:42:14.585Z,3.53
2023-08-17T23:44:41.078Z,3.50
2023-08-17T23:47:07.674Z,3.85
2023-08-17T23:49:34.115Z,3.20
2023-08-17T23:52:00.543Z,3.95
2023-08-17T23:54:27.046Z,3.50
2023-08-17T23:56:53.601Z,3.42
2023-08-17T23:59:20.123Z,3.58
